Time;durP1;ratioP1;P1;durP2;ratioP2;P2;SDS_P1;SDS_P2;PMS_P1;PMS_P2;Temp;Humidity;BMP_temperature;BMP_pressure;BME280_temperature;BME280_humidity;BME280_pressure;Samples;Min_cycle;Max_cycle;Signal;HPM_P1;HPM_P2
2024/02/24 00:01:58;;;;;;;1.95;0.80;;;;;;;18.44;42.31;99299.81;4999630;28;20038;-69
2024/02/24 00:04:23;;;;;;;2.55;0.82;;;;;;;18.41;41.99;99302.78;5000363;28;20155;-69
2024/02/24 00:06:49;;;;;;;2.60;1.23;;;;;;;18.44;42.30;99313.00;5001227;28;20083;-69
2024/02/24 00:09:14;;;;;;;1.85;0.73;;;;;;;18.32;42.25;99294.00;5000085;28;20030;-69
2024/02/24 00:11:39;;;;;;;2.05;0.80;;;;;;;18.29;42.02;99294.34;5000686;28;20526;-69
2024/02/24 00:14:04;;;;;;;2.03;0.75;;;;;;;18.40;41.76;99316.94;5000873;28;20468;-69
2024/02/24 00:16:30;;;;;;;1.85;0.73;;;;;;;18.33;41.96;99300.94;5000625;28;20564;-69
2024/02/24 00:18:59;;;;;;;1.48;0.70;;;;;;;18.31;41.87;99301.09;4999631;28;20056;-69
2024/02/24 00:21:24;;;;;;;1.92;0.80;;;;;;;18.33;41.81;99305.41;5001076;28;20026;-69
2024/02/24 00:23:50;;;;;;;1.50;0.65;;;;;;;18.20;41.74;99287.41;5000478;28;20034;-69
2024/02/24 00:26:15;;;;;;;1.95;0.80;;;;;;;18.31;41.84;99306.38;5000224;28;20214;-69
2024/02/24 00:28:40;;;;;;;2.25;0.90;;;;;;;18.29;41.64;99302.25;5001372;28;20034;-69
2024/02/24 00:31:06;;;;;;;2.22;0.77;;;;;;;18.23;41.68;99297.63;4982906;28;20044;-69
2024/02/24 00:33:31;;;;;;;2.47;0.80;;;;;;;18.26;41.60;99311.31;5000714;28;20503;-69
2024/02/24 00:35:56;;;;;;;2.72;0.80;;;;;;;18.18;41.71;99299.94;5000472;28;20034;-69
2024/02/24 00:38:22;;;;;;;1.85;0.93;;;;;;;18.25;41.81;99312.31;5000652;28;20120;-69
2024/02/24 00:40:47;;;;;;;1.77;0.80;;;;;;;18.21;41.63;99308.31;4999108;28;20033;-69
2024/02/24 00:43:12;;;;;;;1.70;0.70;;;;;;;18.17;41.57;99301.75;5001090;28;20411;-69
2024/02/24 00:45:37;;;;;;;1.40;0.70;;;;;;;18.20;41.60;99311.13;5000497;28;20046;-69
2024/02/24 00:48:03;;;;;;;1.75;0.73;;;;;;;18.16;41.64;99305.34;4982405;28;20494;-69
2024/02/24 00:50:29;;;;;;;1.58;0.70;;;;;;;18.18;41.81;99305.19;5000282;28;20822;-69
2024/02/24 00:52:55;;;;;;;1.75;0.60;;;;;;;18.18;41.49;99308.66;4999896;28;20480;-69
2024/02/24 00:55:21;;;;;;;2.35;0.80;;;;;;;18.07;41.74;99288.72;4981826;28;20423;-69
2024/02/24 00:57:46;;;;;;;1.90;0.80;;;;;;;18.07;41.54;99288.72;5000667;28;20034;-68
2024/02/24 01:00:12;;;;;;;2.28;0.77;;;;;;;18.07;41.45;99294.00;4982434;28;20048;-69
2024/02/24 01:02:37;;;;;;;2.65;1.15;;;;;;;18.19;41.38;99318.22;4997731;28;20346;-69
2024/02/24 01:05:03;;;;;;;2.92;0.90;;;;;;;18.19;41.48;99323.50;4999910;28;20026;-69
2024/02/24 01:07:28;;;;;;;1.65;0.80;;;;;;;18.15;41.51;99318.69;4999458;28;20026;-69
2024/02/24 01:09:53;;;;;;;2.88;0.80;;;;;;;18.03;41.36;99297.91;4999731;28;20096;-69
2024/02/24 01:12:19;;;;;;;2.10;1.17;;;;;;;18.15;41.52;99327.47;5000443;28;20034;-69
2024/02/24 01:14:44;;;;;;;1.77;0.75;;;;;;;18.16;41.59;99331.72;4999292;28;20146;-69
2024/02/24 01:17:10;;;;;;;2.90;0.75;;;;;;;18.11;41.50;99323.47;5000203;28;20084;-69
2024/02/24 01:19:36;;;;;;;2.13;0.88;;;;;;;18.02;41.48;99306.81;5000438;28;20433;-68
2024/02/24 01:22:01;;;;;;;1.67;0.77;;;;;;;18.03;41.52;99308.47;4998643;28;20056;-69
2024/02/24 01:24:27;;;;;;;2.90;0.88;;;;;;;18.05;41.47;99319.66;5000021;28;20042;-69
2024/02/24 01:26:53;;;;;;;2.78;0.90;;;;;;;17.94;41.33;99299.72;4999814;28;20025;-69
2024/02/24 01:29:18;;;;;;;2.28;0.70;;;;;;;18.02;41.38;99313.91;4981436;28;20133;-69
2024/02/24 01:31:43;;;;;;;2.30;0.85;;;;;;;18.07;41.47;99325.63;4999740;28;20041;-69
2024/02/24 01:34:09;;;;;;;1.52;0.70;;;;;;;17.88;41.44;99286.34;4982453;28;20087;-69
2024/02/24 01:36:34;;;;;;;1.85;0.80;;;;;;;17.93;41.48;99298.06;4998802;28;20540;-68
2024/02/24 01:38:59;;;;;;;2.80;0.90;;;;;;;18.05;41.50;99314.38;4999783;28;20147;-69
2024/02/24 01:41:25;;;;;;;3.00;0.93;;;;;;;18.00;41.47;99305.34;4999690;28;20034;-69
2024/02/24 01:43:50;;;;;;;4.10;1.00;;;;;;;17.90;41.22;99294.94;4999182;28;20037;-69
2024/02/24 01:46:16;;;;;;;2.60;0.90;;;;;;;18.03;41.29;99320.84;4999690;28;20037;-68
2024/02/24 01:48:41;;;;;;;3.08;0.80;;;;;;;18.03;41.24;99323.47;4999661;28;20264;-69
2024/02/24 01:51:09;;;;;;;2.58;0.80;;;;;;;17.94;41.00;99305.00;4981016;28;20040;-69
2024/02/24 01:53:36;;;;;;;1.65;0.70;;;;;;;18.02;41.10;99313.91;4999432;28;20093;-69
2024/02/24 01:56:06;;;;;;;2.35;0.77;;;;;;;18.04;41.44;99325.94;4999780;28;20481;-69
2024/02/24 01:58:34;;;;;;;1.75;0.70;;;;;;;17.89;41.29;99295.91;4998038;28;20030;-69
2024/02/24 02:01:00;;;;;;;1.98;0.73;;;;;;;17.96;41.14;99325.94;4997854;28;20038;-69
2024/02/24 02:03:26;;;;;;;2.00;0.95;;;;;;;17.92;41.21;99314.84;4996763;28;20033;-69
2024/02/24 02:05:51;;;;;;;2.80;0.90;;;;;;;18.00;41.24;99329.88;5001030;28;20119;-69
2024/02/24 02:08:17;;;;;;;1.70;0.73;;;;;;;17.94;41.23;99312.06;5003506;28;20483;-69
2024/02/24 02:10:44;;;;;;;2.08;0.73;;;;;;;17.88;41.37;99312.69;5002381;28;20033;-69
2024/02/24 02:13:09;;;;;;;1.67;0.75;;;;;;;17.88;41.50;99315.34;5003704;28;20037;-69
2024/02/24 02:15:36;;;;;;;2.40;0.75;;;;;;;17.95;41.44;99338.25;4985572;28;20026;-69
2024/02/24 02:18:02;;;;;;;0.98;0.60;;;;;;;17.91;41.40;99325.56;5002589;28;20076;-69
2024/02/24 02:20:27;;;;;;;2.20;0.80;;;;;;;17.91;41.35;99330.81;5003326;28;20479;-69
2024/02/24 02:22:52;;;;;;;2.15;0.70;;;;;;;17.86;41.29;99327.81;5003235;28;20045;-69
2024/02/24 02:25:18;;;;;;;1.88;0.80;;;;;;;17.85;41.39;99327.00;5002060;28;20392;-69
2024/02/24 02:27:43;;;;;;;1.30;0.60;;;;;;;17.85;41.30;99334.91;5002522;28;20040;-69
2024/02/24 02:30:08;;;;;;;2.05;0.77;;;;;;;17.85;41.42;99334.91;4985197;28;20398;-69
2024/02/24 02:32:34;;;;;;;1.40;0.60;;;;;;;17.91;41.08;99344.84;5003240;28;20033;-69
2024/02/24 02:34:59;;;;;;;1.75;0.60;;;;;;;17.88;41.28;99341.69;5002297;28;20026;-69
2024/02/24 02:37:24;;;;;;;1.02;0.60;;;;;;;17.91;41.13;99344.00;5002708;28;20026;-69
2024/02/24 02:39:50;;;;;;;1.10;0.50;;;;;;;17.94;41.03;99360.34;5002188;28;20044;-68
2024/02/24 02:42:15;;;;;;;2.75;0.88;;;;;;;17.85;41.13;99344.59;5003427;28;20205;-68
2024/02/24 02:44:40;;;;;;;1.02;0.50;;;;;;;17.88;41.23;99352.22;5003175;28;20033;-68
2024/02/24 02:47:05;;;;;;;2.03;0.70;;;;;;;17.83;41.26;99341.31;5002139;28;20033;-69
2024/02/24 02:49:31;;;;;;;2.10;0.70;;;;;;;17.85;40.86;99348.09;5003049;28;20030;-69
2024/02/24 02:51:56;;;;;;;1.15;0.57;;;;;;;17.79;41.19;99345.25;5002877;28;20503;-69
2024/02/24 02:54:21;;;;;;;0.93;0.55;;;;;;;17.85;41.08;99357.78;5002119;28;20637;-69
2024/02/24 02:56:46;;;;;;;1.58;0.60;;;;;;;17.79;41.29;99346.09;5002520;28;20440;-68
2024/02/24 02:59:12;;;;;;;1.98;0.60;;;;;;;17.81;41.16;99353.84;5002928;28;20127;-68
2024/02/24 03:01:37;;;;;;;1.00;0.50;;;;;;;17.76;41.35;99347.22;5001500;28;20436;-68
2024/02/24 03:04:02;;;;;;;2.60;0.55;;;;;;;17.80;41.12;99346.91;5001364;28;20237;-68
2024/02/24 03:06:31;;;;;;;2.92;0.73;;;;;;;17.81;41.15;99354.66;4985014;28;20567;-69
2024/02/24 03:08:56;;;;;;;1.30;0.60;;;;;;;17.88;41.19;99357.50;5001770;28;20038;-68
2024/02/24 03:11:22;;;;;;;0.85;0.50;;;;;;;17.88;41.12;99354.88;4984477;28;20026;-69
2024/02/24 03:13:47;;;;;;;1.45;0.50;;;;;;;17.72;41.10;99342.41;4984345;28;20037;-69
2024/02/24 03:16:17;;;;;;;1.38;0.60;;;;;;;17.84;41.17;99356.16;5000357;28;20129;-69
2024/02/24 03:18:42;;;;;;;1.17;0.50;;;;;;;17.79;41.15;99353.16;5002253;28;20050;-69
2024/02/24 03:21:08;;;;;;;0.98;0.50;;;;;;;17.74;40.96;99343.91;5000789;28;20034;-69
2024/02/24 03:23:33;;;;;;;0.50;0.40;;;;;;;17.82;41.01;99358.13;5001969;28;20034;-69
2024/02/24 03:25:58;;;;;;;1.77;0.60;;;;;;;17.77;41.30;99345.44;5001948;28;20060;-69
2024/02/24 03:28:23;;;;;;;1.07;0.60;;;;;;;17.72;41.24;99348.53;5001354;28;20034;-69
2024/02/24 03:30:49;;;;;;;2.03;0.60;;;;;;;17.73;41.47;99357.25;5001025;28;20834;-69
2024/02/24 03:33:14;;;;;;;1.23;0.50;;;;;;;17.79;41.17;99366.34;5002378;28;20029;-68
2024/02/24 03:35:39;;;;;;;1.63;0.52;;;;;;;17.80;41.29;99366.19;5001643;28;20748;-69
2024/02/24 03:38:04;;;;;;;1.38;0.60;;;;;;;17.65;41.13;99347.50;5001701;28;20250;-69
2024/02/24 03:40:30;;;;;;;1.30;0.40;;;;;;;17.76;41.41;99363.03;5001925;28;20112;-68
2024/02/24 03:42:55;;;;;;;0.80;0.50;;;;;;;17.73;41.11;99358.06;5000925;28;20036;-69
2024/02/24 03:45:20;;;;;;;1.25;0.52;;;;;;;17.79;41.21;99364.53;4984294;28;20033;-69
2024/02/24 03:47:46;;;;;;;1.02;0.50;;;;;;;17.78;41.20;99357.59;5001581;28;20026;-69
2024/02/24 03:50:11;;;;;;;1.45;0.60;;;;;;;17.65;41.02;99339.59;5001069;28;20400;-69
2024/02/24 03:52:37;;;;;;;1.02;0.50;;;;;;;17.75;40.96;99358.75;5001498;28;20107;-69
2024/02/24 03:55:03;;;;;;;0.98;0.52;;;;;;;17.76;40.95;99360.38;5001451;28;20099;-68
2024/02/24 03:57:28;;;;;;;1.10;0.60;;;;;;;17.66;41.16;99338.63;5000903;28;20850;-69
2024/02/24 03:59:54;;;;;;;1.02;0.45;;;;;;;17.74;40.99;99353.66;5001485;28;20336;-69
2024/02/24 04:02:20;;;;;;;1.35;0.50;;;;;;;17.74;41.12;99358.91;4999599;28;20037;-69
2024/02/24 04:04:47;;;;;;;1.55;0.50;;;;;;;17.65;41.21;99344.88;4999996;28;20546;-70
2024/02/24 04:07:13;;;;;;;1.00;0.55;;;;;;;17.66;40.96;99343.88;5000141;28;20399;-68
2024/02/24 04:09:38;;;;;;;1.88;0.63;;;;;;;17.63;40.93;99344.19;4983273;28;20030;-68
2024/02/24 04:12:03;;;;;;;1.30;0.40;;;;;;;17.71;41.03;99367.13;4982525;28;20037;-68
2024/02/24 04:14:29;;;;;;;1.17;0.40;;;;;;;17.63;41.23;99356.56;5001215;28;20041;-68
2024/02/24 04:16:55;;;;;;;0.90;0.43;;;;;;;17.65;41.30;99371.22;4999960;28;20579;-68
2024/02/24 04:19:20;;;;;;;1.48;0.50;;;;;;;17.63;40.96;99367.91;5001403;28;20034;-68
2024/02/24 04:21:46;;;;;;;1.42;0.50;;;;;;;17.59;40.92;99361.28;5001109;28;20256;-68
2024/02/24 04:24:11;;;;;;;0.70;0.50;;;;;;;17.59;41.11;99370.03;5001071;28;20502;-68
2024/02/24 04:26:36;;;;;;;0.80;0.40;;;;;;;17.59;41.11;99377.09;5000568;28;20030;-68
2024/02/24 04:29:02;;;;;;;1.08;0.50;;;;;;;17.72;41.11;99389.84;5000585;28;20431;-68
2024/02/24 04:31:27;;;;;;;0.88;0.47;;;;;;;17.61;40.99;99380.44;5000237;28;20117;-68
2024/02/24 04:33:53;;;;;;;1.02;0.55;;;;;;;17.59;40.99;99377.94;5000493;28;20096;-68
2024/02/24 04:36:18;;;;;;;0.82;0.50;;;;;;;17.62;41.01;99382.06;5000905;28;20030;-68
2024/02/24 04:38:43;;;;;;;0.90;0.50;;;;;;;17.55;41.23;99376.59;5000395;28;20041;-68
2024/02/24 04:41:09;;;;;;;0.77;0.45;;;;;;;17.67;41.32;99400.03;5000488;28;20030;-68
2024/02/24 04:43:34;;;;;;;0.68;0.45;;;;;;;17.68;41.09;99404.31;5000924;28;20034;-68
2024/02/24 04:46:00;;;;;;;0.75;0.40;;;;;;;17.69;40.72;99414.72;4999601;28;20030;-68
2024/02/24 04:48:25;;;;;;;1.02;0.50;;;;;;;17.54;40.71;99398.63;5000767;28;20396;-68
2024/02/24 04:50:50;;;;;;;0.70;0.50;;;;;;;17.58;41.07;99407.91;4999866;28;20488;-68
2024/02/24 04:53:16;;;;;;;0.80;0.43;;;;;;;17.64;41.16;99424.91;4999655;28;20034;-69
2024/02/24 04:55:41;;;;;;;1.67;0.70;;;;;;;17.58;41.22;99409.72;5000044;28;20025;-68
2024/02/24 04:58:06;;;;;;;1.17;0.60;;;;;;;17.55;40.93;99405.56;5000715;28;20029;-68
2024/02/24 05:00:32;;;;;;;1.48;0.50;;;;;;;17.61;40.87;99427.00;4999685;28;20478;-68
2024/02/24 05:02:57;;;;;;;0.70;0.40;;;;;;;17.65;40.79;99436.25;4997847;28;20540;-68
2024/02/24 05:05:22;;;;;;;1.05;0.50;;;;;;;17.46;41.27;99395.16;5000219;28;20029;-68
2024/02/24 05:07:48;;;;;;;0.75;0.40;;;;;;;17.61;41.18;99419.94;4999461;28;20033;-68
2024/02/24 05:10:13;;;;;;;1.25;0.50;;;;;;;17.27;41.38;99373.28;5000265;28;20036;-68
2024/02/24 05:12:47;;;;;;;0.77;0.40;;;;;;;17.36;41.16;99389.97;5000371;28;20392;-68
2024/02/24 05:15:12;;;;;;;0.93;0.57;;;;;;;17.62;41.16;99439.19;4999455;28;20144;-68
2024/02/24 05:17:38;;;;;;;0.63;0.40;;;;;;;17.48;41.15;99411.59;5000066;28;20614;-69
2024/02/24 05:20:03;;;;;;;1.02;0.40;;;;;;;17.60;41.21;99431.44;4999650;28;20038;-68
2024/02/24 05:22:30;;;;;;;0.70;0.50;;;;;;;17.53;41.28;99425.13;4999423;28;20534;-68
2024/02/24 05:24:55;;;;;;;1.35;0.43;;;;;;;17.42;41.16;99410.44;4999161;28;20488;-68
2024/02/24 05:27:20;;;;;;;3.05;0.50;;;;;;;17.56;40.90;99430.94;5000364;28;20037;-68
2024/02/24 05:29:46;;;;;;;1.15;0.50;;;;;;;17.54;41.24;99427.63;4998467;28;20148;-68
2024/02/24 05:32:14;;;;;;;1.67;0.50;;;;;;;17.49;41.15;99418.53;4999323;28;20029;-69
2024/02/24 05:34:39;;;;;;;1.33;0.47;;;;;;;17.50;41.00;99425.44;4999887;28;20041;-69
2024/02/24 05:37:04;;;;;;;0.82;0.50;;;;;;;17.45;41.17;99415.41;4981197;28;20030;-69
2024/02/24 05:39:30;;;;;;;0.93;0.50;;;;;;;17.49;41.02;99429.06;4999259;28;20041;-68
2024/02/24 05:41:56;;;;;;;1.73;0.55;;;;;;;17.51;41.02;99440.28;4998593;28;20479;-68
2024/02/24 05:44:21;;;;;;;0.40;0.40;;;;;;;17.51;41.32;99440.28;5000192;28;20160;-69
2024/02/24 05:46:47;;;;;;;1.27;0.60;;;;;;;17.54;41.09;99448.69;4996380;28;20208;-69
2024/02/24 05:49:12;;;;;;;1.58;0.55;;;;;;;17.52;41.03;99448.03;4981248;28;20487;-68
2024/02/24 05:51:39;;;;;;;0.50;0.40;;;;;;;17.41;40.86;99435.09;4999318;28;20026;-69
2024/02/24 05:54:04;;;;;;;1.27;0.55;;;;;;;17.52;41.20;99455.94;4981639;28;20034;-68
2024/02/24 05:56:30;;;;;;;0.95;0.47;;;;;;;17.48;41.31;99456.38;4998594;28;20423;-68
2024/02/24 05:58:55;;;;;;;1.00;0.50;;;;;;;17.40;41.60;99443.97;4999322;28;20402;-68
2024/02/24 06:01:20;;;;;;;0.63;0.40;;;;;;;17.57;41.79;99466.81;4981738;28;20026;-68
2024/02/24 06:03:45;;;;;;;0.60;0.40;;;;;;;17.61;42.08;99475.25;4996759;28;20042;-68
2024/02/24 06:06:11;;;;;;;0.90;0.38;;;;;;;17.58;41.83;99463.22;4999274;28;20136;-69
2024/02/24 06:08:36;;;;;;;0.85;0.40;;;;;;;17.61;41.79;99458.59;4999425;28;20042;-69
2024/02/24 06:11:01;;;;;;;0.63;0.45;;;;;;;17.55;41.95;99450.34;4980878;28;20128;-68
2024/02/24 06:13:27;;;;;;;0.75;0.40;;;;;;;17.66;42.12;99470.34;4999164;28;20041;-69
2024/02/24 06:15:52;;;;;;;1.20;0.50;;;;;;;17.73;41.99;99471.38;4999473;28;20472;-68
2024/02/24 06:18:19;;;;;;;0.93;0.40;;;;;;;17.66;42.07;99459.81;4997978;28;20049;-68
2024/02/24 06:20:44;;;;;;;1.00;0.40;;;;;;;17.84;41.78;99485.28;4981384;28;20482;-69
2024/02/24 06:23:10;;;;;;;0.70;0.38;;;;;;;17.87;41.65;99487.59;4999098;28;20034;-69
2024/02/24 06:25:35;;;;;;;1.20;0.50;;;;;;;17.84;42.04;99474.75;4998814;28;20034;-69
2024/02/24 06:28:01;;;;;;;0.50;0.32;;;;;;;17.89;41.72;99477.75;4981083;28;20558;-69
2024/02/24 06:30:26;;;;;;;1.35;0.50;;;;;;;17.79;41.67;99462.03;4998754;28;20109;-69
2024/02/24 06:32:51;;;;;;;0.55;0.35;;;;;;;17.85;41.76;99471.09;4997896;28;20030;-69
2024/02/24 06:35:17;;;;;;;0.85;0.47;;;;;;;17.75;41.85;99458.03;4999773;28;20104;-69
2024/02/24 06:37:42;;;;;;;1.27;0.40;;;;;;;17.80;41.68;99468.13;4999315;28;20037;-68
2024/02/24 06:40:08;;;;;;;0.75;0.38;;;;;;;17.99;41.74;99496.09;4980770;28;20491;-68
2024/02/24 06:42:33;;;;;;;0.93;0.40;;;;;;;17.86;41.78;99473.59;4999214;28;20037;-69
2024/02/24 06:44:59;;;;;;;0.60;0.30;;;;;;;17.94;41.64;99488.66;4998603;28;20224;-69
2024/02/24 06:47:24;;;;;;;1.30;0.50;;;;;;;17.90;41.63;99485.50;4998552;28;20566;-69
2024/02/24 06:49:49;;;;;;;1.55;0.50;;;;;;;17.94;41.75;99484.22;4999070;28;20293;-69
2024/02/24 06:52:14;;;;;;;2.03;0.50;;;;;;;18.01;41.61;99502.03;5000956;28;20471;-69
2024/02/24 06:54:40;;;;;;;0.63;0.50;;;;;;;17.91;41.74;99487.19;5003258;28;20193;-69
2024/02/24 06:57:06;;;;;;;1.60;0.52;;;;;;;18.05;41.54;99506.03;4984661;28;20030;-69
2024/02/24 06:59:31;;;;;;;1.58;0.50;;;;;;;17.94;41.68;99486.03;5002116;28;20653;-69
2024/02/24 07:01:56;;;;;;;0.75;0.40;;;;;;;17.92;41.65;99494.09;5000929;28;20044;-69
2024/02/24 07:04:22;;;;;;;0.93;0.40;;;;;;;18.01;41.58;99512.56;5001950;28;20061;-69
2024/02/24 07:06:47;;;;;;;0.70;0.40;;;;;;;17.97;41.53;99512.06;5001762;28;20121;-69
2024/02/24 07:09:12;;;;;;;0.65;0.30;;;;;;;17.96;41.66;99505.16;5002043;28;20037;-69
2024/02/24 07:11:37;;;;;;;0.77;0.32;;;;;;;18.03;41.42;99519.34;4985067;28;20034;-69
2024/02/24 07:14:03;;;;;;;0.85;0.47;;;;;;;17.92;41.60;99496.72;5001685;28;20030;-69
2024/02/24 07:16:28;;;;;;;0.80;0.30;;;;;;;18.09;41.60;99531.91;5000321;28;20495;-69
2024/02/24 07:18:53;;;;;;;0.80;0.50;;;;;;;17.97;41.56;99516.53;5001328;28;20053;-69
2024/02/24 07:21:19;;;;;;;1.05;0.47;;;;;;;18.07;41.73;99528.63;4999488;28;20104;-69
2024/02/24 07:23:44;;;;;;;0.95;0.40;;;;;;;18.06;41.52;99532.22;5001980;28;20030;-69
2024/02/24 07:26:10;;;;;;;0.93;0.50;;;;;;;18.08;41.53;99534.72;5002171;28;20152;-69
2024/02/24 07:28:35;;;;;;;1.10;0.50;;;;;;;17.99;41.73;99519.81;5001350;28;20034;-69
2024/02/24 07:31:01;;;;;;;0.57;0.40;;;;;;;18.06;41.36;99539.31;5000905;28;20033;-68
2024/02/24 07:33:27;;;;;;;1.48;0.50;;;;;;;18.07;41.47;99546.22;5001912;28;20112;-69
2024/02/24 07:35:52;;;;;;;1.88;0.82;;;;;;;17.96;41.52;99539.44;5001546;28;20432;-70
2024/02/24 07:38:17;;;;;;;0.98;0.45;;;;;;;18.02;41.59;99548.50;5001392;28;20453;-70
2024/02/24 07:40:42;;;;;;;0.90;0.47;;;;;;;17.95;41.80;99551.75;4984427;28;20065;-72
2024/02/24 07:43:08;;;;;;;0.50;0.40;;;;;;;18.09;41.84;99581.19;5001019;28;20026;-68
2024/02/24 07:45:33;;;;;;;1.67;0.43;;;;;;;18.08;41.98;99580.34;5002243;28;20120;-68
2024/02/24 07:47:59;;;;;;;0.70;0.40;;;;;;;18.02;41.89;99573.06;5001473;28;20467;-68
2024/02/24 07:50:24;;;;;;;0.85;0.50;;;;;;;18.09;42.24;99604.94;5001404;28;20045;-69
2024/02/24 07:52:49;;;;;;;1.95;0.60;;;;;;;18.07;42.11;99610.34;5000809;28;20042;-69
2024/02/24 07:55:15;;;;;;;1.33;0.40;;;;;;;18.09;41.97;99613.66;5001702;28;20044;-70
2024/02/24 07:57:41;;;;;;;0.75;0.40;;;;;;;18.11;42.26;99619.59;4995579;28;20097;-68
2024/02/24 08:00:08;;;;;;;2.10;0.52;;;;;;;18.11;42.30;99619.59;4981196;28;20128;-68
2024/02/24 08:02:34;;;;;;;1.00;0.40;;;;;;;18.11;42.21;99624.88;4993378;28;20047;-66
2024/02/24 08:04:59;;;;;;;1.80;0.80;;;;;;;17.99;42.46;99605.03;4997256;28;20033;-67
2024/02/24 08:07:25;;;;;;;2.28;0.60;;;;;;;18.13;42.20;99622.06;5001197;28;20052;-67
2024/02/24 08:09:50;;;;;;;0.88;0.45;;;;;;;18.10;42.43;99631.13;4999941;28;20106;-67
2024/02/24 08:12:16;;;;;;;0.88;0.50;;;;;;;18.02;42.50;99614.41;5000582;28;20033;-67
2024/02/24 08:14:41;;;;;;;0.88;0.40;;;;;;;18.14;42.77;99639.56;5001126;28;20112;-67
2024/02/24 08:17:07;;;;;;;2.42;0.57;;;;;;;18.15;42.81;99643.00;4998414;28;20047;-67
2024/02/24 08:19:33;;;;;;;2.00;0.55;;;;;;;18.13;42.96;99648.44;4993405;28;20121;-67
2024/02/24 08:22:02;;;;;;;2.22;0.50;;;;;;;18.16;42.94;99645.50;5000318;28;21002;-67
2024/02/24 08:24:28;;;;;;;1.70;0.82;;;;;;;18.17;43.13;99647.16;4995476;28;20124;-68
2024/02/24 08:26:53;;;;;;;1.13;0.47;;;;;;;18.16;42.95;99648.13;4999167;28;20132;-69
2024/02/24 08:29:18;;;;;;;1.00;0.47;;;;;;;18.07;43.11;99641.13;5000984;28;20037;-69
2024/02/24 08:31:43;;;;;;;1.10;0.60;;;;;;;18.06;42.96;99645.59;4999920;28;20426;-68
2024/02/24 08:34:09;;;;;;;2.65;0.65;;;;;;;18.05;42.98;99640.47;5000875;28;20109;-68
2024/02/24 08:36:35;;;;;;;2.55;0.70;;;;;;;18.10;42.97;99649.59;4996539;28;20204;-68
2024/02/24 08:39:01;;;;;;;1.48;0.60;;;;;;;18.20;43.04;99669.75;5000111;28;20288;-68
2024/02/24 08:41:27;;;;;;;1.88;0.70;;;;;;;18.18;42.88;99661.16;5001018;28;20056;-69
2024/02/24 08:43:53;;;;;;;0.98;0.50;;;;;;;18.07;42.80;99655.16;4999551;28;20045;-69
2024/02/24 08:46:21;;;;;;;0.95;0.50;;;;;;;18.15;42.55;99670.22;4981607;28;20022;-70
2024/02/24 08:48:46;;;;;;;1.23;0.50;;;;;;;18.13;42.71;99675.66;4999340;28;20029;-69
2024/02/24 08:51:11;;;;;;;1.77;0.50;;;;;;;18.17;42.76;99686.72;5000720;28;20343;-69
2024/02/24 08:53:37;;;;;;;1.35;0.68;;;;;;;18.12;42.77;99675.81;5000125;28;20041;-69
2024/02/24 08:56:02;;;;;;;2.22;0.70;;;;;;;18.14;42.69;99681.75;5000381;28;20135;-69
2024/02/24 08:58:31;;;;;;;0.60;0.40;;;;;;;18.10;42.81;99681.22;5000720;28;20038;-69
2024/02/24 09:00:58;;;;;;;1.20;0.50;;;;;;;18.15;42.67;99691.31;4999712;28;20037;-69
2024/02/24 09:03:23;;;;;;;1.33;0.60;;;;;;;18.13;42.54;99688.00;4998688;28;20069;-69
2024/02/24 09:05:49;;;;;;;1.58;0.60;;;;;;;18.13;42.35;99691.47;4998921;28;20542;-68
2024/02/24 09:08:15;;;;;;;2.08;0.52;;;;;;;18.14;42.71;99694.94;5000519;28;20518;-68
2024/02/24 09:10:40;;;;;;;1.52;0.70;;;;;;;18.15;42.94;99696.59;5000101;28;20030;-69
2024/02/24 09:13:05;;;;;;;2.65;0.77;;;;;;;18.04;42.45;99688.91;4999077;28;20472;-68
2024/02/24 09:15:31;;;;;;;1.30;0.50;;;;;;;18.12;42.50;99699.53;4999746;28;20037;-69
2024/02/24 09:17:56;;;;;;;1.42;0.73;;;;;;;18.09;42.80;99705.94;4999416;28;20082;-69
2024/02/24 09:20:21;;;;;;;1.33;0.60;;;;;;;18.11;42.50;99705.78;4999366;28;20037;-69
2024/02/24 09:22:48;;;;;;;3.78;0.73;;;;;;;18.08;42.70;99699.00;4998941;28;20499;-68
2024/02/24 09:25:15;;;;;;;1.90;0.70;;;;;;;18.17;42.81;99712.28;4999312;28;20040;-68
2024/02/24 09:27:41;;;;;;;1.77;0.75;;;;;;;18.15;42.74;99725.59;4999398;28;20172;-68
2024/02/24 09:30:10;;;;;;;0.63;0.43;;;;;;;18.06;42.71;99703.59;4999636;28;20044;-68
2024/02/24 09:32:35;;;;;;;1.13;0.60;;;;;;;18.04;42.89;99708.19;4998732;28;20500;-68
2024/02/24 09:35:01;;;;;;;1.75;0.73;;;;;;;18.04;42.67;99702.94;4999336;28;20400;-68
2024/02/24 09:37:26;;;;;;;1.85;0.60;;;;;;;18.06;42.61;99714.13;4999671;28;20044;-68
2024/02/24 09:39:51;;;;;;;1.80;0.60;;;;;;;18.00;42.84;99704.19;4999875;28;20471;-69
2024/02/24 09:42:17;;;;;;;1.40;0.70;;;;;;;18.16;42.62;99729.06;4979457;28;20038;-70
2024/02/24 09:44:42;;;;;;;2.47;0.70;;;;;;;18.12;42.91;99732.00;4998497;28;20255;-69
2024/02/24 09:47:08;;;;;;;3.60;0.70;;;;;;;18.17;42.83;99738.63;4998153;28;20113;-69
2024/02/24 09:49:33;;;;;;;1.27;0.70;;;;;;;18.12;42.68;99737.28;4998605;28;20117;-71
2024/02/24 09:51:59;;;;;;;3.72;0.73;;;;;;;18.16;42.72;99740.44;4999389;28;20083;-69
2024/02/24 09:54:27;;;;;;;3.10;1.00;;;;;;;17.93;42.75;99706.63;4999222;28;20072;-68
2024/02/24 09:56:56;;;;;;;3.45;0.68;;;;;;;18.08;42.67;99737.72;4999032;28;20033;-68
2024/02/24 09:59:22;;;;;;;1.75;0.60;;;;;;;18.03;42.41;99727.63;4999765;28;20034;-69
2024/02/24 10:01:48;;;;;;;3.58;0.77;;;;;;;18.05;42.39;99730.94;4997565;28;20038;-69
2024/02/24 10:04:17;;;;;;;1.48;0.63;;;;;;;18.12;42.48;99739.91;4997809;28;20060;-69
2024/02/24 10:06:42;;;;;;;1.80;0.60;;;;;;;18.13;42.57;99738.94;4999548;28;20052;-69
2024/02/24 10:09:08;;;;;;;1.45;0.65;;;;;;;18.08;42.60;99733.28;4997976;28;20030;-69
2024/02/24 10:11:35;;;;;;;1.08;0.57;;;;;;;18.20;42.83;99748.84;4997806;28;20120;-68
2024/02/24 10:14:01;;;;;;;1.50;0.65;;;;;;;18.05;42.72;99727.47;4998812;28;20034;-68
2024/02/24 10:16:26;;;;;;;1.50;0.52;;;;;;;18.18;42.63;99756.09;4997889;28;20136;-69
2024/02/24 10:18:52;;;;;;;2.22;0.52;;;;;;;18.11;42.88;99750.59;4981084;28;20406;-68
2024/02/24 10:21:17;;;;;;;1.20;0.60;;;;;;;18.13;42.84;99746.84;4981930;28;20068;-68
2024/02/24 10:23:42;;;;;;;1.40;0.50;;;;;;;18.19;42.53;99760.41;4998178;28;20392;-68
2024/02/24 10:26:08;;;;;;;1.15;0.60;;;;;;;18.06;42.65;99742.31;5001346;28;20108;-68
2024/02/24 10:28:35;;;;;;;1.10;0.50;;;;;;;18.11;42.41;99753.25;5003124;28;20038;-68
2024/02/24 10:31:01;;;;;;;2.83;0.70;;;;;;;18.13;42.68;99757.41;5001769;28;20181;-68
2024/02/24 10:33:29;;;;;;;1.25;0.50;;;;;;;18.19;42.58;99763.84;5003218;28;20559;-68
2024/02/24 10:35:55;;;;;;;2.28;0.70;;;;;;;18.22;42.41;99774.09;5002234;28;20041;-69
2024/02/24 10:38:21;;;;;;;1.30;0.60;;;;;;;18.12;42.81;99754.91;5001259;28;20496;-68
2024/02/24 10:40:47;;;;;;;1.65;0.50;;;;;;;18.22;42.48;99776.75;5002559;28;20040;-68
2024/02/24 10:43:14;;;;;;;1.67;0.60;;;;;;;18.21;42.44;99779.53;4998893;28;20487;-67
2024/02/24 10:45:39;;;;;;;2.40;0.80;;;;;;;18.10;42.33;99765.59;4980493;28;20038;-71
2024/02/24 10:48:05;;;;;;;3.83;0.80;;;;;;;18.12;42.34;99771.56;5001122;28;20392;-71
2024/02/24 10:50:30;;;;;;;1.98;0.60;;;;;;;18.20;42.09;99781.34;5001000;28;20451;-70
2024/02/24 10:53:00;;;;;;;1.15;0.55;;;;;;;18.15;42.12;99783.63;5000965;28;20488;-70
2024/02/24 10:55:27;;;;;;;2.22;0.80;;;;;;;18.23;42.26;99793.38;5000496;28;20038;-73
2024/02/24 10:57:54;;;;;;;1.48;0.60;;;;;;;18.27;41.99;99795.56;4997492;28;20097;-68
2024/02/24 11:00:24;;;;;;;4.03;0.85;;;;;;;18.15;41.92;99772.22;4999818;28;20121;-73
2024/02/24 11:02:50;;;;;;;2.15;0.63;;;;;;;18.28;41.67;99799.88;4997996;28;20062;-74
2024/02/24 11:05:16;;;;;;;3.42;0.70;;;;;;;18.22;41.89;99789.94;4999176;28;20045;-72
2024/02/24 11:07:41;;;;;;;1.67;0.57;;;;;;;18.19;41.75;99776.22;4999943;28;20037;-72
2024/02/24 11:10:15;;;;;;;2.13;0.60;;;;;;;18.17;41.89;99765.81;5000879;28;20553;-72
2024/02/24 11:12:40;;;;;;;3.17;0.63;;;;;;;18.34;41.69;99803.75;4998944;28;20057;-70
2024/02/24 11:15:06;;;;;;;3.67;0.70;;;;;;;18.33;41.66;99802.06;4999814;28;20540;-68
2024/02/24 11:17:51;;;;;;;2.15;0.57;;;;;;;18.37;41.81;99819.22;4998107;28;20054;-69
2024/02/24 11:20:37;;;;;;;3.28;0.75;;;;;;;18.39;41.97;99821.72;4982102;28;20156;-69
2024/02/24 11:23:26;;;;;;;1.08;0.40;;;;;;;18.37;41.91;99813.13;5000920;28;20033;-70
2024/02/24 11:26:10;;;;;;;1.92;0.50;;;;;;;18.40;42.06;99831.31;5000244;28;20404;-69
2024/02/24 11:28:43;;;;;;;2.95;0.90;;;;;;;18.38;42.00;99818.25;5001113;28;20044;-70